Cayucos, California
Current Conditions -  °F | °C
As of 8:56 PM on Sunday 21 Dec 2014 (Local Time) from KSBP Reporting Station
Overcast Overcast  
Wind Chill: 63°   Ceiling: 2500
Heat Index: 63°   Visibility: 10mi
Dew Point: 55°   Wind: 10mph
Humidity: 75%   Direction: 340°NNW
Pressure: 30.22"   Gusts: NA
Location:  35.44°N, 120.89°W
Report Text: KSBP 220456Z 34009KT 10SM BKN025 OVC034 17/13 A3022 RMK AO2 SLP231 T01720128
Loading
Personal Weather Stations






























Interactive Weather Map New forecast layout! Learn more

10-Day Weather Forecast

Advertisements
Track Severe Weather on mobile